Terminal Aerodrome Forecast
Issued by NWS

Home | Current Version | Previous Version | Text Only | Print | Product List | Glossary On
Versions: 1 2 3 4 5 6 7 8 9 10 11 12 13 14 15 16 17 18 19 20 21 22 23 24 25 26 27 28 29 30 31
000
FTUS45 KLKN 280348 AAD
TAFWMC
TAF AMD
KWMC 280348Z 2804/2824 12006KT P6SM SCT028 BKN035 OVC080
     FM280800 VRB03KT P6SM VCSH OVC040
     FM281200 VRB04KT P6SM VCFG BKN050
     FM281800 VRB05KT P6SM SCT050 BKN070=

USA.gov is the U.S. government's official web portal to all federal, state and local government web resources and services.